Time;durP1;ratioP1;P1;durP2;ratioP2;P2;SDS_P1;SDS_P2;PMS_P1;PMS_P2;Temp;Humidity;BMP_temperature;BMP_pressure;BME280_temperature;BME280_humidity;BME280_pressure;Samples;Min_cycle;Max_cycle;Signal;HPM_P1;HPM_P2
2021/04/18 00:01:02;;;;;;;6.45;3.22;;;;;;;7.02;72.73;101773.19;5068470;28;20024;-78
2021/04/18 00:03:28;;;;;;;13.98;4.40;;;;;;;7.02;73.50;101770.53;5067529;28;20067;-79
2021/04/18 00:05:53;;;;;;;9.65;3.40;;;;;;;6.96;74.28;101772.53;5065274;28;20024;-80
2021/04/18 00:08:18;;;;;;;10.82;3.22;;;;;;;6.90;74.69;101773.59;5065934;28;20055;-78
2021/04/18 00:10:45;;;;;;;5.68;3.40;;;;;;;6.81;74.86;101768.53;5063353;28;20078;-78
2021/04/18 00:13:13;;;;;;;7.72;3.38;;;;;;;6.74;75.13;101766.97;5066557;28;20028;-78
2021/04/18 00:15:42;;;;;;;6.60;3.40;;;;;;;6.66;75.69;101764.59;5070119;28;20025;-77
2021/04/18 00:18:09;;;;;;;8.68;3.40;;;;;;;6.58;75.83;101758.59;5068865;28;20756;-78
2021/04/18 00:20:35;;;;;;;6.43;3.33;;;;;;;6.57;76.07;101763.97;5065337;28;20089;-77
2021/04/18 00:23:01;;;;;;;7.72;3.03;;;;;;;6.53;76.30;101767.66;5070803;28;20035;-78
2021/04/18 00:25:26;;;;;;;10.98;3.45;;;;;;;6.48;76.27;101766.00;5068262;28;20036;-78
2021/04/18 00:27:52;;;;;;;6.18;3.17;;;;;;;6.43;76.46;101767.06;5067950;28;20417;-78
2021/04/18 00:30:20;;;;;;;6.93;3.25;;;;;;;6.32;77.02;101759.41;5069362;28;20496;-77
2021/04/18 00:32:46;;;;;;;10.77;3.80;;;;;;;6.28;77.41;101763.09;5071266;28;20365;-77
2021/04/18 00:35:13;;;;;;;7.75;3.55;;;;;;;6.22;78.03;101757.94;5068907;28;20047;-78
2021/04/18 00:37:40;;;;;;;12.10;4.38;;;;;;;6.20;78.40;101766.88;5070073;28;20024;-78
2021/04/18 00:40:08;;;;;;;7.03;2.88;;;;;;;6.18;78.48;101764.25;5067988;28;20029;-78
2021/04/18 00:42:34;;;;;;;15.32;3.60;;;;;;;6.19;78.72;101758.00;5047995;28;20028;-78
2021/04/18 00:44:59;;;;;;;11.00;3.90;;;;;;;6.19;78.62;101758.00;5067336;28;20044;-78
2021/04/18 00:47:25;;;;;;;11.40;3.60;;;;;;;6.20;78.71;101759.75;5069614;28;20029;-78
2021/04/18 00:49:50;;;;;;;8.00;3.40;;;;;;;6.22;78.68;101754.41;5066511;28;20060;-77
2021/04/18 00:52:16;;;;;;;8.82;3.33;;;;;;;6.22;78.63;101752.59;5069762;28;20105;-78
2021/04/18 00:54:41;;;;;;;9.00;3.92;;;;;;;6.19;78.92;101757.13;5069293;28;20469;-78
2021/04/18 00:57:07;;;;;;;8.57;3.30;;;;;;;6.17;79.00;101754.53;5070690;28;20028;-78
2021/04/18 00:59:33;;;;;;;6.75;3.40;;;;;;;6.16;79.33;101751.91;5067347;28;20028;-77
2021/04/18 01:01:59;;;;;;;9.82;3.90;;;;;;;6.12;79.08;101751.09;5070674;28;20679;-78
2021/04/18 01:04:25;;;;;;;6.90;3.42;;;;;;;6.10;78.76;101752.97;5066185;28;20037;-77
2021/04/18 01:06:51;;;;;;;11.23;3.60;;;;;;;6.05;78.99;101753.09;5064522;28;20020;-78
2021/04/18 01:09:17;;;;;;;10.75;3.88;;;;;;;6.06;79.14;101745.97;5066662;28;20053;-78
2021/04/18 01:11:43;;;;;;;9.02;3.60;;;;;;;6.00;79.50;101744.34;5063257;28;20032;-78
2021/04/18 01:14:08;;;;;;;10.18;3.30;;;;;;;5.92;79.82;101749.06;5071381;28;20491;-80
2021/04/18 01:16:34;;;;;;;7.18;3.20;;;;;;;5.90;80.20;101742.88;5069725;28;20032;-78
2021/04/18 01:19:00;;;;;;;8.68;3.95;;;;;;;5.86;80.14;101738.53;5062395;28;20032;-79
2021/04/18 01:21:26;;;;;;;14.23;4.95;;;;;;;5.85;80.11;101741.25;5064512;28;20035;-78
2021/04/18 01:23:52;;;;;;;7.88;3.40;;;;;;;5.81;79.90;101735.09;5070878;28;20041;-78
2021/04/18 01:26:25;;;;;;;10.43;5.03;;;;;;;5.79;80.09;101736.09;5063691;28;20027;-77
2021/04/18 01:28:54;;;;;;;10.57;3.95;;;;;;;5.74;80.35;101733.53;5069046;28;20662;-77
2021/04/18 01:31:20;;;;;;;10.43;3.72;;;;;;;5.70;80.52;101735.41;5062952;28;20380;-78
2021/04/18 01:33:45;;;;;;;13.60;4.80;;;;;;;5.72;80.37;101734.50;5066040;28;20465;-77
2021/04/18 01:36:11;;;;;;;14.88;3.83;;;;;;;5.73;80.40;101730.94;5068965;28;20075;-78
2021/04/18 01:38:37;;;;;;;11.02;3.40;;;;;;;5.68;80.54;101728.38;5068445;28;20029;-77
2021/04/18 01:41:08;;;;;;;9.07;3.63;;;;;;;5.67;80.54;101721.31;5068362;28;20202;-77
2021/04/18 01:43:33;;;;;;;12.45;3.90;;;;;;;5.66;80.53;101725.78;5069208;28;20028;-78
2021/04/18 01:45:59;;;;;;;9.95;3.88;;;;;;;5.63;80.95;101725.84;5063404;28;20064;-78
2021/04/18 01:48:25;;;;;;;6.65;3.45;;;;;;;5.58;81.29;101721.56;5065135;28;20127;-78
2021/04/18 01:50:52;;;;;;;7.25;3.17;;;;;;;5.56;81.51;101718.06;5051515;28;20028;-78
2021/04/18 01:53:19;;;;;;;9.10;3.58;;;;;;;5.56;81.61;101720.72;5069250;28;20035;-77
2021/04/18 01:55:46;;;;;;;10.38;3.58;;;;;;;5.54;81.65;101715.47;5063401;28;20017;-77
2021/04/18 01:58:12;;;;;;;12.95;3.50;;;;;;;5.54;81.77;101715.47;5067745;28;20067;-78
2021/04/18 02:00:51;;;;;;;17.42;5.07;;;;;;;5.49;81.98;101712.03;5055810;28;20076;-78
2021/04/18 02:03:16;;;;;;;11.45;3.58;;;;;;;5.43;82.38;101717.53;5068112;28;20067;-78
2021/04/18 02:05:43;;;;;;;18.98;6.15;;;;;;;5.44;82.45;101707.75;5066408;28;20032;-77
2021/04/18 02:08:17;;;;;;;17.60;5.82;;;;;;;5.43;82.82;101704.19;5047157;28;20378;-78
2021/04/18 02:10:44;;;;;;;11.93;4.95;;;;;;;5.46;83.00;101714.78;5063476;28;20025;-77
2021/04/18 02:13:12;;;;;;;13.73;5.80;;;;;;;5.37;83.34;101709.69;5057056;28;20115;-78
2021/04/18 02:15:57;;;;;;;20.45;8.02;;;;;;;5.33;83.70;101707.16;5062511;28;20437;-78
2021/04/18 02:18:24;;;;;;;22.38;7.85;;;;;;;5.31;84.08;101712.53;5057367;28;20449;-77
2021/04/18 02:20:51;;;;;;;19.65;7.70;;;;;;;5.31;84.29;101707.19;5068451;28;20028;-78
2021/04/18 02:23:16;;;;;;;16.08;6.20;;;;;;;5.31;84.38;101707.19;5065325;28;20374;-78
2021/04/18 02:25:42;;;;;;;16.27;6.05;;;;;;;5.31;84.40;101696.56;5047803;28;20135;-77
2021/04/18 02:28:08;;;;;;;20.42;5.85;;;;;;;5.31;84.55;101699.22;5057279;28;20568;-77
2021/04/18 02:30:35;;;;;;;13.98;4.78;;;;;;;5.29;84.73;101695.75;5067031;28;20116;-78
2021/04/18 02:33:01;;;;;;;12.15;5.80;;;;;;;5.34;84.80;101700.94;5064699;28;20029;-78
2021/04/18 02:35:28;;;;;;;11.75;4.85;;;;;;;5.37;84.64;101700.88;5063340;28;20024;-78
2021/04/18 02:37:54;;;;;;;9.68;4.88;;;;;;;5.40;84.89;101704.31;5058170;28;20033;-78
2021/04/18 02:40:19;;;;;;;13.65;4.97;;;;;;;5.47;84.88;101703.22;5053132;28;20040;-78
2021/04/18 02:42:46;;;;;;;17.33;5.10;;;;;;;5.51;84.89;101707.53;5067498;28;20060;-77
2021/04/18 02:45:14;;;;;;;10.85;4.88;;;;;;;5.51;84.58;101709.31;5056640;28;20480;-77
2021/04/18 02:47:45;;;;;;;15.15;4.85;;;;;;;5.48;84.60;101709.44;5064727;28;20028;-77
2021/04/18 02:50:12;;;;;;;10.82;4.63;;;;;;;5.51;85.06;101710.19;5067114;28;20512;-78
2021/04/18 02:52:38;;;;;;;9.75;4.82;;;;;;;5.49;85.13;101712.03;5063879;28;20059;-77
2021/04/18 02:55:05;;;;;;;11.27;4.63;;;;;;;5.46;85.65;101717.44;5067727;28;20028;-78
2021/04/18 02:57:34;;;;;;;10.95;4.90;;;;;;;5.43;86.04;101714.00;5062154;28;20020;-77
2021/04/18 02:59:59;;;;;;;10.73;4.78;;;;;;;5.48;85.51;101710.31;5065876;28;20505;-78
2021/04/18 03:02:25;;;;;;;15.98;4.93;;;;;;;5.46;85.55;101714.78;5069634;28;20036;-78
2021/04/18 03:04:51;;;;;;;14.70;4.13;;;;;;;5.50;85.67;101710.25;5050752;28;20036;-78
2021/04/18 03:07:17;;;;;;;15.77;5.32;;;;;;;5.50;85.41;101713.78;5065338;28;20036;-77
2021/04/18 03:09:43;;;;;;;12.88;4.78;;;;;;;5.50;85.82;101713.78;5063694;28;20037;-77
2021/04/18 03:12:11;;;;;;;11.85;4.80;;;;;;;5.48;86.55;101712.97;5070238;28;20078;-78
2021/04/18 03:14:41;;;;;;;13.95;4.32;;;;;;;5.43;86.83;101717.53;5071810;28;20043;-78
2021/04/18 03:17:10;;;;;;;13.15;4.50;;;;;;;5.52;86.59;101714.63;5066310;28;20166;-78
2021/04/18 03:19:45;;;;;;;10.35;4.72;;;;;;;5.52;87.02;101716.41;5070117;28;20685;-78
2021/04/18 03:22:13;;;;;;;9.95;5.13;;;;;;;5.46;87.17;101714.78;5072880;28;20032;-79
2021/04/18 03:24:38;;;;;;;15.45;5.80;;;;;;;5.47;87.42;101708.56;5071711;28;20071;-77
2021/04/18 03:27:06;;;;;;;15.93;5.57;;;;;;;5.50;87.77;101711.13;5071435;28;20036;-77
2021/04/18 03:29:31;;;;;;;12.95;5.68;;;;;;;5.54;87.78;101712.81;5070841;28;20032;-77
2021/04/18 03:31:58;;;;;;;14.80;5.57;;;;;;;5.52;88.09;101719.94;5071338;28;20032;-78
2021/04/18 03:34:23;;;;;;;18.55;5.43;;;;;;;5.53;88.39;101711.03;5071306;28;20032;-77
2021/04/18 03:36:49;;;;;;;12.98;5.05;;;;;;;5.57;88.19;101714.47;5069121;28;20031;-79
2021/04/18 03:39:17;;;;;;;14.30;5.82;;;;;;;5.49;88.96;101704.03;5071208;28;20033;-77
2021/04/18 03:41:46;;;;;;;14.07;5.20;;;;;;;5.44;89.01;101713.94;5060227;28;20033;-77
2021/04/18 03:44:12;;;;;;;14.20;5.28;;;;;;;5.49;88.65;101712.03;5068774;28;20028;-77
2021/04/18 03:46:38;;;;;;;11.93;4.50;;;;;;;5.45;89.07;101710.38;5069390;28;20029;-80
2021/04/18 03:49:04;;;;;;;15.90;5.90;;;;;;;5.42;89.32;101721.13;5072151;28;20052;-78
2021/04/18 03:51:31;;;;;;;16.33;5.80;;;;;;;5.43;89.59;101711.34;5069503;28;20047;-78
2021/04/18 03:54:02;;;;;;;12.45;5.10;;;;;;;5.49;89.86;101706.69;5060656;28;20411;-77
2021/04/18 03:56:30;;;;;;;16.67;5.40;;;;;;;5.45;90.50;101705.03;5066340;28;20043;-77
2021/04/18 03:58:57;;;;;;;13.88;5.70;;;;;;;5.48;90.41;101706.78;5071036;28;20024;-77
2021/04/18 04:01:24;;;;;;;12.48;5.78;;;;;;;5.54;90.81;101711.91;5071321;28;20139;-78
2021/04/18 04:03:51;;;;;;;17.40;6.38;;;;;;;5.60;91.03;101712.63;5068542;28;20031;-78
2021/04/18 04:06:19;;;;;;;18.05;6.38;;;;;;;5.55;91.02;101711.88;5065913;28;20016;-79
2021/04/18 04:08:49;;;;;;;17.67;5.82;;;;;;;5.52;91.29;101709.28;5062835;28;20041;-79
2021/04/18 04:11:18;;;;;;;15.82;6.05;;;;;;;5.48;91.61;101704.97;5071355;28;20110;-77
2021/04/18 04:13:46;;;;;;;14.02;6.38;;;;;;;5.51;91.83;101710.19;5061787;28;20117;-77
2021/04/18 04:16:13;;;;;;;13.05;6.03;;;;;;;5.50;92.32;101716.44;5070505;28;20021;-77
2021/04/18 04:18:39;;;;;;;12.93;6.03;;;;;;;5.53;92.37;101719.03;5050021;28;20771;-77
2021/04/18 04:21:21;;;;;;;15.95;6.05;;;;;;;5.57;92.62;101717.16;5066423;28;20036;-78
2021/04/18 04:24:12;;;;;;;13.95;6.05;;;;;;;5.55;92.60;101716.34;5070150;28;20107;-77
2021/04/18 04:26:38;;;;;;;14.43;6.03;;;;;;;5.63;92.76;101709.84;5068120;28;20020;-77
2021/04/18 04:29:04;;;;;;;20.08;6.72;;;;;;;5.62;93.45;101713.44;5085216;28;20043;-77
2021/04/18 04:31:29;;;;;;;16.05;6.82;;;;;;;5.63;93.66;101717.84;5051114;28;20028;-78
2021/04/18 04:33:55;;;;;;;14.75;6.35;;;;;;;5.67;93.79;101710.66;5063435;28;20120;-77
2021/04/18 04:36:21;;;;;;;22.73;6.70;;;;;;;5.78;93.93;101705.91;5070502;28;20048;-77
2021/04/18 04:38:46;;;;;;;16.60;6.65;;;;;;;5.78;94.17;101719.22;5068835;28;20113;-78
2021/04/18 04:41:12;;;;;;;16.05;6.68;;;;;;;5.66;94.58;101714.25;5068295;28;20183;-77
2021/04/18 04:43:37;;;;;;;15.50;6.43;;;;;;;5.62;94.57;101710.78;5066484;28;20043;-77
2021/04/18 04:46:03;;;;;;;15.48;7.65;;;;;;;5.73;95.12;101704.28;5053217;28;20392;-76
2021/04/18 04:48:28;;;;;;;16.15;7.57;;;;;;;5.85;95.08;101701.28;5073599;28;20040;-76
2021/04/18 04:50:53;;;;;;;16.65;7.22;;;;;;;5.89;95.01;101702.94;5069854;28;20024;-78
2021/04/18 04:53:19;;;;;;;14.40;7.32;;;;;;;5.82;95.56;101715.53;5067966;28;20032;-78
2021/04/18 04:55:46;;;;;;;20.55;7.78;;;;;;;5.71;96.12;101714.97;5069517;28;20064;-79
2021/04/18 04:58:11;;;;;;;12.73;6.68;;;;;;;5.61;96.31;101711.72;5070083;28;20036;-77
2021/04/18 05:00:37;;;;;;;23.35;7.85;;;;;;;5.63;96.89;101707.19;5066597;28;20032;-78
2021/04/18 05:03:03;;;;;;;20.08;7.10;;;;;;;5.62;97.42;101713.44;5065938;28;20043;-77
2021/04/18 05:05:29;;;;;;;25.08;7.47;;;;;;;5.60;97.45;101709.97;5066687;28;20035;-77
2021/04/18 05:07:55;;;;;;;21.40;8.63;;;;;;;5.64;97.47;101711.63;5060791;28;20040;-78
2021/04/18 05:10:20;;;;;;;18.70;7.80;;;;;;;5.80;97.46;101712.03;5062688;28;20070;-77
2021/04/18 05:12:46;;;;;;;18.25;7.32;;;;;;;5.89;97.56;101710.94;5053452;28;20028;-77
2021/04/18 05:15:12;;;;;;;19.13;8.45;;;;;;;5.90;97.31;101712.69;5059821;28;20036;-77
2021/04/18 05:17:37;;;;;;;22.35;8.32;;;;;;;5.85;97.63;101709.25;5068541;28;20314;-77
2021/04/18 05:20:03;;;;;;;23.27;8.40;;;;;;;5.89;97.94;101705.59;5068270;28;20037;-77
2021/04/18 05:22:29;;;;;;;24.02;8.25;;;;;;;5.90;98.29;101712.69;5057777;28;20036;-77
2021/04/18 05:24:54;;;;;;;21.30;8.15;;;;;;;5.85;98.10;101704.81;5069910;28;20500;-77
2021/04/18 05:27:19;;;;;;;26.70;7.97;;;;;;;5.94;97.99;101711.69;5067026;28;20407;-78
2021/04/18 05:29:46;;;;;;;19.23;7.65;;;;;;;6.01;98.15;101706.13;5067953;28;20040;-78
2021/04/18 05:32:11;;;;;;;21.08;8.23;;;;;;;6.10;98.10;101705.00;5067355;28;20036;-77
2021/04/18 05:34:37;;;;;;;23.85;8.20;;;;;;;6.06;98.23;101697.97;5061229;28;20106;-78
2021/04/18 05:37:04;;;;;;;22.35;8.55;;;;;;;6.07;98.39;101705.94;5067900;28;20111;-77
2021/04/18 05:39:29;;;;;;;23.50;8.52;;;;;;;6.09;98.43;101713.91;5066713;28;20039;-77
2021/04/18 05:41:55;;;;;;;23.45;9.00;;;;;;;5.95;98.99;101726.75;5066164;28;20405;-78
2021/04/18 05:44:20;;;;;;;24.67;8.90;;;;;;;5.96;99.20;101723.16;5068489;28;20469;-77
2021/04/18 05:46:46;;;;;;;25.17;10.02;;;;;;;6.01;99.29;101737.22;5060503;28;20099;-77
2021/04/18 05:49:12;;;;;;;28.08;9.25;;;;;;;6.14;98.44;101741.28;5061820;28;20516;-77
2021/04/18 05:51:37;;;;;;;27.58;8.80;;;;;;;6.08;98.69;101736.13;5069046;28;20120;-77
2021/04/18 05:54:04;;;;;;;22.48;8.93;;;;;;;6.15;98.29;101745.69;5063077;28;20140;-77
2021/04/18 05:56:30;;;;;;;20.05;8.48;;;;;;;6.12;97.78;101756.44;5065715;28;20024;-78
2021/04/18 05:58:55;;;;;;;19.75;8.52;;;;;;;6.11;98.12;101749.34;5068307;28;20508;-78
2021/04/18 06:01:24;;;;;;;24.45;9.10;;;;;;;6.21;98.00;101745.53;5070321;28;20064;-77
2021/04/18 06:03:51;;;;;;;26.92;9.40;;;;;;;6.15;98.42;101745.69;5059423;28;20028;-80
2021/04/18 06:06:17;;;;;;;23.58;9.30;;;;;;;6.18;98.44;101745.59;5062078;28;20358;-77
2021/04/18 06:08:42;;;;;;;21.05;10.13;;;;;;;6.23;98.67;101750.81;5066889;28;20085;-77
2021/04/18 06:11:08;;;;;;;28.25;9.43;;;;;;;6.35;98.78;101745.09;5068146;28;20036;-78
2021/04/18 06:13:34;;;;;;;27.33;8.95;;;;;;;6.36;98.96;101741.50;5069161;28;20085;-79
2021/04/18 06:16:00;;;;;;;25.38;8.90;;;;;;;6.35;98.90;101743.31;5060010;28;20094;-77
2021/04/18 06:18:26;;;;;;;22.63;9.75;;;;;;;6.37;98.74;101736.13;5067414;28;20504;-78
2021/04/18 06:20:51;;;;;;;19.17;8.90;;;;;;;6.44;99.05;101745.69;5057753;28;20568;-77
2021/04/18 06:23:17;;;;;;;22.77;9.45;;;;;;;6.53;97.64;101735.66;5068233;28;20032;-78
2021/04/18 06:25:42;;;;;;;21.35;8.45;;;;;;;6.56;97.29;101730.22;5065594;28;20504;-79
2021/04/18 06:28:08;;;;;;;37.13;11.27;;;;;;;6.72;96.26;101736.84;5069336;28;20057;-78
2021/04/18 06:30:33;;;;;;;25.40;8.80;;;;;;;6.77;95.74;101734.88;5068332;28;20032;-77
2021/04/18 06:32:59;;;;;;;22.92;9.75;;;;;;;6.93;95.58;101740.56;5062810;28;20033;-78
2021/04/18 06:35:24;;;;;;;23.58;10.00;;;;;;;7.08;95.03;101740.06;5069422;28;20041;-77
2021/04/18 06:37:49;;;;;;;22.75;9.90;;;;;;;7.18;93.98;101745.03;5067824;28;20043;-78
2021/04/18 06:40:15;;;;;;;21.15;8.85;;;;;;;7.12;93.15;101753.25;5065906;28;20042;-78
2021/04/18 06:42:42;;;;;;;25.83;9.20;;;;;;;7.19;93.39;101748.59;5064835;28;20109;-78
2021/04/18 06:45:10;;;;;;;26.35;9.15;;;;;;;7.25;93.46;101746.59;5067535;28;20075;-78
2021/04/18 06:47:39;;;;;;;18.98;9.43;;;;;;;7.25;94.33;101759.94;5064722;28;20025;-78
2021/04/18 06:50:10;;;;;;;26.20;8.98;;;;;;;7.24;94.48;101752.84;5069331;28;20042;-78
2021/04/18 06:52:37;;;;;;;22.08;9.45;;;;;;;7.40;94.04;101760.34;5065573;28;20050;-78
2021/04/18 06:55:03;;;;;;;21.25;9.00;;;;;;;7.57;93.31;101756.16;5066557;28;20492;-77
2021/04/18 06:57:29;;;;;;;26.40;10.32;;;;;;;7.77;92.32;101747.44;5068218;28;20419;-78
2021/04/18 06:59:55;;;;;;;27.52;10.73;;;;;;;7.93;92.51;101755.75;5063494;28;20043;-79
2021/04/18 07:02:29;;;;;;;21.65;9.52;;;;;;;8.05;91.47;101750.81;5065171;28;20041;-78
2021/04/18 07:05:03;;;;;;;24.02;9.45;;;;;;;8.34;91.10;101746.19;5063103;28;20060;-78
2021/04/18 07:07:32;;;;;;;22.48;10.38;;;;;;;8.95;88.08;101751.78;5065086;28;20481;-77
2021/04/18 07:09:57;;;;;;;23.98;9.52;;;;;;;9.64;85.85;101750.59;5064919;28;20037;-78
2021/04/18 07:12:28;;;;;;;25.13;9.68;;;;;;;10.38;81.29;101752.56;5068177;28;20039;-79
2021/04/18 07:14:53;;;;;;;21.65;9.27;;;;;;;10.92;78.15;101757.09;5063485;28;20543;-78
2021/04/18 07:17:19;;;;;;;25.00;9.88;;;;;;;11.04;75.38;101744.88;5067746;28;20036;-77
2021/04/18 07:19:49;;;;;;;22.15;8.23;;;;;;;11.27;74.02;101752.66;5061195;28;20032;-78
2021/04/18 07:22:25;;;;;;;22.02;9.80;;;;;;;11.02;75.53;101738.72;5061617;28;20481;-77
2021/04/18 07:24:52;;;;;;;25.50;9.85;;;;;;;10.65;75.70;101746.84;5063506;28;20032;-77
2021/04/18 07:27:19;;;;;;;22.55;9.80;;;;;;;10.25;78.29;101745.16;5050742;28;20119;-78
2021/04/18 07:29:54;;;;;;;28.48;11.35;;;;;;;10.35;78.99;101743.81;5066171;28;20123;-80
2021/04/18 07:32:22;;;;;;;23.65;9.88;;;;;;;10.17;79.78;101745.53;5060465;28;20055;-78
2021/04/18 07:34:47;;;;;;;23.83;10.93;;;;;;;10.03;80.58;101731.84;5068157;28;20119;-79
2021/04/18 07:37:19;;;;;;;22.17;8.63;;;;;;;9.98;80.85;101732.06;5063364;28;20111;-77
2021/04/18 07:39:58;;;;;;;18.05;9.43;;;;;;;9.85;81.66;101730.00;5059065;28;20052;-78
2021/04/18 07:42:33;;;;;;;21.45;9.68;;;;;;;9.56;81.95;101718.78;5065420;28;20074;-78
2021/04/18 07:45:02;;;;;;;20.90;8.50;;;;;;;9.63;82.54;101720.22;5062024;28;20104;-78
2021/04/18 07:47:28;;;;;;;21.15;8.60;;;;;;;9.72;81.72;101719.81;5061782;28;20036;-78
2021/04/18 07:49:55;;;;;;;21.90;9.43;;;;;;;9.62;82.64;101717.63;5067655;28;20040;-77
2021/04/18 07:52:23;;;;;;;21.02;9.20;;;;;;;9.70;82.05;101721.69;5066184;28;20029;-78
2021/04/18 07:54:49;;;;;;;33.97;9.13;;;;;;;9.75;82.57;101717.00;5069068;28;20111;-78
2021/04/18 07:57:18;;;;;;;21.42;9.50;;;;;;;9.89;81.27;101720.88;5064154;28;20139;-78
2021/04/18 07:59:43;;;;;;;19.70;9.05;;;;;;;9.91;80.06;101719.00;5059877;28;20064;-78
2021/04/18 08:02:14;;;;;;;24.65;9.93;;;;;;;9.84;80.87;101733.63;5068060;28;20128;-78
2021/04/18 08:04:42;;;;;;;17.80;8.63;;;;;;;9.89;79.71;101743.19;5064136;28;20123;-77
2021/04/18 08:07:08;;;;;;;31.27;9.07;;;;;;;10.15;81.02;101734.84;5068661;28;20133;-78
2021/04/18 08:09:34;;;;;;;28.63;9.45;;;;;;;10.20;80.85;101731.09;5064524;28;20505;-77
2021/04/18 08:12:10;;;;;;;22.85;9.25;;;;;;;10.39;79.86;101735.53;5069542;28;20037;-77
2021/04/18 08:14:39;;;;;;;21.55;8.07;;;;;;;11.60;77.02;101738.44;5066287;28;20035;-78
2021/04/18 08:17:13;;;;;;;15.55;8.05;;;;;;;12.75;70.57;101739.28;5068834;28;20044;-77
2021/04/18 08:19:54;;;;;;;21.10;8.52;;;;;;;13.21;65.27;101754.53;5064730;28;20556;-78
2021/04/18 08:22:20;;;;;;;17.10;7.60;;;;;;;13.85;64.22;101757.91;5069788;28;20098;-77
2021/04/18 08:24:45;;;;;;;15.85;7.75;;;;;;;13.95;61.33;101761.78;5068414;28;20033;-78
2021/04/18 08:27:13;;;;;;;15.73;7.60;;;;;;;13.75;62.60;101754.91;5051686;28;20039;-78
2021/04/18 08:30:04;;;;;;;19.80;8.77;;;;;;;13.45;63.54;101754.06;5066492;28;20032;-78
2021/04/18 08:32:46;;;;;;;17.13;7.93;;;;;;;12.73;64.89;101735.78;5068900;28;20487;-77
2021/04/18 08:35:17;;;;;;;21.38;7.95;;;;;;;12.24;66.50;101724.22;5062211;28;20025;-78
2021/04/18 08:37:42;;;;;;;20.38;7.70;;;;;;;12.23;67.97;101730.56;5064136;28;20040;-77
2021/04/18 08:40:09;;;;;;;16.63;8.20;;;;;;;12.95;65.79;101726.41;5070727;28;20036;-78
2021/04/18 08:42:34;;;;;;;21.58;7.03;;;;;;;13.89;61.49;101732.44;5072633;28;20029;-79
2021/04/18 08:45:01;;;;;;;18.70;7.43;;;;;;;14.49;58.34;101739.44;5069638;28;20037;-78
2021/04/18 08:47:29;;;;;;;15.52;7.57;;;;;;;14.98;57.77;101741.63;5070017;28;20453;-79
2021/04/18 08:50:04;;;;;;;19.10;8.50;;;;;;;15.20;56.25;101749.16;5067310;28;20045;-78
2021/04/18 08:52:33;;;;;;;15.23;7.10;;;;;;;15.12;55.20;101746.13;5069510;28;20028;-77
2021/04/18 08:55:08;;;;;;;15.40;7.32;;;;;;;14.37;57.74;101742.94;5053177;28;20119;-78
2021/04/18 08:57:34;;;;;;;20.05;7.82;;;;;;;13.69;62.29;101739.97;5069767;28;20036;-78
2021/04/18 09:00:02;;;;;;;16.60;8.07;;;;;;;13.66;63.39;101736.56;5069160;28;20678;-78
2021/04/18 09:02:29;;;;;;;16.35;7.85;;;;;;;13.35;63.79;101740.25;5068029;28;20378;-77
2021/04/18 09:04:59;;;;;;;17.35;7.35;;;;;;;12.78;64.30;101734.56;5055969;28;20053;-78
2021/04/18 09:07:28;;;;;;;15.90;7.47;;;;;;;12.71;66.31;101744.00;5065227;28;20130;-77
2021/04/18 09:10:02;;;;;;;17.55;8.60;;;;;;;12.64;65.67;101741.72;5070963;28;20397;-77
2021/04/18 09:12:28;;;;;;;19.52;8.25;;;;;;;12.54;65.91;101744.06;5072086;28;20036;-77
2021/04/18 09:14:54;;;;;;;19.17;8.52;;;;;;;12.47;65.64;101734.56;5074348;28;20044;-78
2021/04/18 09:17:28;;;;;;;19.70;8.20;;;;;;;12.38;66.42;101732.41;5074741;28;20032;-77
2021/04/18 09:19:54;;;;;;;19.30;8.15;;;;;;;12.46;68.42;101738.25;5067156;28;20045;-80
2021/04/18 09:22:24;;;;;;;12.55;7.47;;;;;;;12.64;67.37;101737.22;5067398;28;20028;-79
2021/04/18 09:24:49;;;;;;;22.45;8.55;;;;;;;12.49;67.99;101730.84;5062103;28;20028;-78
2021/04/18 09:27:29;;;;;;;14.00;7.28;;;;;;;12.33;68.14;101737.19;5070123;28;20595;-78
2021/04/18 09:29:58;;;;;;;19.30;8.20;;;;;;;12.47;67.85;101734.56;5065520;28;20059;-78
2021/04/18 09:32:32;;;;;;;18.15;8.25;;;;;;;12.51;67.44;101730.78;5066931;28;20029;-77
2021/04/18 09:34:58;;;;;;;18.13;8.85;;;;;;;12.62;70.59;101732.84;5069644;28;20036;-78
2021/04/18 09:37:32;;;;;;;18.45;9.05;;;;;;;12.66;69.35;101723.63;5056222;28;20024;-77
2021/04/18 09:40:00;;;;;;;16.95;8.63;;;;;;;12.73;68.01;101731.28;5067123;28;20058;-79
2021/04/18 09:42:28;;;;;;;17.92;9.57;;;;;;;12.78;67.57;101729.19;5065883;28;20041;-78
2021/04/18 09:45:08;;;;;;;24.88;9.88;;;;;;;13.01;67.67;101729.69;5067878;28;20040;-78
2021/04/18 09:47:34;;;;;;;19.98;9.77;;;;;;;13.14;66.90;101730.75;5066292;28;20497;-79
2021/04/18 09:50:03;;;;;;;20.35;9.45;;;;;;;13.05;65.26;101739.34;5073114;28;20058;-77
2021/04/18 09:52:39;;;;;;;16.38;8.55;;;;;;;12.98;65.80;101731.59;5070984;28;20500;-79
2021/04/18 09:55:13;;;;;;;18.73;8.90;;;;;;;13.19;66.85;101736.75;5071189;28;20037;-78
2021/04/18 09:58:00;;;;;;;21.90;9.70;;;;;;;13.50;64.71;101731.25;5061664;28;20035;-78
2021/04/18 10:00:32;;;;;;;19.17;9.02;;;;;;;13.60;64.51;101736.94;5059453;28;20368;-78
2021/04/18 10:03:12;;;;;;;22.30;8.82;;;;;;;13.83;64.93;101730.13;5062282;28;20147;-77
2021/04/18 10:05:47;;;;;;;17.67;8.25;;;;;;;13.77;64.94;101732.25;5060898;28;20098;-78
2021/04/18 10:08:15;;;;;;;19.33;7.97;;;;;;;13.74;63.60;101732.47;5061031;28;20040;-77
2021/04/18 10:10:40;;;;;;;19.85;8.85;;;;;;;13.70;62.26;101725.50;5049292;28;20040;-78
2021/04/18 10:13:06;;;;;;;21.77;9.23;;;;;;;13.69;62.36;101733.72;5066676;28;20055;-78
2021/04/18 10:15:31;;;;;;;21.27;9.25;;;;;;;14.06;63.24;101735.88;5066420;28;20039;-77
2021/04/18 10:18:08;;;;;;;18.02;8.35;;;;;;;13.98;61.92;101730.06;5055811;28;20543;-78
2021/04/18 10:20:35;;;;;;;19.23;8.93;;;;;;;13.89;61.77;101736.03;5061955;28;20032;-78
2021/04/18 10:23:09;;;;;;;16.35;8.40;;;;;;;13.95;61.36;101732.94;5070256;28;20360;-78
2021/04/18 10:25:37;;;;;;;16.25;7.97;;;;;;;13.57;59.47;101729.94;5050994;28;20082;-80
2021/04/18 10:28:04;;;;;;;15.80;8.18;;;;;;;13.54;59.76;101726.53;5072145;28;20040;-78
2021/04/18 10:30:30;;;;;;;18.48;8.05;;;;;;;13.46;60.37;101718.91;5068647;28;20028;-79
2021/04/18 10:32:56;;;;;;;16.58;7.90;;;;;;;13.44;59.82;101718.13;5065862;28;20490;-78
2021/04/18 10:35:22;;;;;;;16.17;8.85;;;;;;;13.39;60.76;101714.84;5069315;28;20039;-79
2021/04/18 10:37:47;;;;;;;15.25;8.32;;;;;;;13.46;58.75;101710.81;5069996;28;20032;-78
2021/04/18 10:40:15;;;;;;;17.02;8.10;;;;;;;13.46;59.92;101709.94;5067671;28;20036;-79
2021/04/18 10:42:42;;;;;;;15.75;9.13;;;;;;;13.55;59.99;101704.88;5069295;28;20036;-80
2021/04/18 10:45:10;;;;;;;19.40;8.15;;;;;;;13.76;60.51;101714.31;5073142;28;20036;-80
2021/04/18 10:47:36;;;;;;;20.08;9.02;;;;;;;13.93;61.67;101709.72;5069351;28;20060;-79
2021/04/18 10:50:03;;;;;;;16.60;8.57;;;;;;;14.08;60.46;101708.75;5056655;28;20040;-80
2021/04/18 10:52:30;;;;;;;17.95;8.23;;;;;;;14.16;59.96;101703.75;5055344;28;20043;-79
2021/04/18 10:54:55;;;;;;;16.45;7.50;;;;;;;14.31;58.11;101710.00;5074397;28;20032;-80
2021/04/18 10:57:21;;;;;;;15.93;7.15;;;;;;;14.35;57.12;101709.69;5067836;28;20028;-77
2021/04/18 10:59:46;;;;;;;12.95;6.97;;;;;;;14.35;56.25;101704.28;5073981;28;20060;-79
2021/04/18 11:02:12;;;;;;;15.98;7.68;;;;;;;14.53;58.11;101696.88;5073170;28;20044;-78
2021/04/18 11:04:37;;;;;;;16.80;6.78;;;;;;;14.65;56.08;101703.28;5071363;28;20055;-78
2021/04/18 11:07:03;;;;;;;13.77;6.22;;;;;;;14.67;53.70;101704.06;5071511;28;20032;-78
2021/04/18 11:09:29;;;;;;;12.07;5.57;;;;;;;14.81;51.51;101696.75;5071390;28;20032;-79
2021/04/18 11:11:55;;;;;;;14.02;6.63;;;;;;;14.96;50.27;101690.34;5070105;28;20389;-78
2021/04/18 11:14:21;;;;;;;19.20;7.13;;;;;;;14.93;51.55;101687.88;5072215;28;20028;-79
2021/04/18 11:16:48;;;;;;;9.38;5.93;;;;;;;14.95;52.21;101693.16;5061868;28;20084;-79
2021/04/18 11:19:13;;;;;;;17.35;6.50;;;;;;;14.76;53.35;101689.94;5073591;28;20054;-80
2021/04/18 11:21:39;;;;;;;13.63;6.18;;;;;;;14.83;53.18;101677.75;5069475;28;20089;-79
2021/04/18 11:24:06;;;;;;;12.98;6.22;;;;;;;14.81;51.16;101682.41;5070628;28;20028;-81
2021/04/18 11:26:31;;;;;;;16.23;6.88;;;;;;;14.73;49.18;101673.94;5064402;28;20481;-79